Time;durP1;ratioP1;P1;durP2;ratioP2;P2;SDS_P1;SDS_P2;PMS_P1;PMS_P2;Temp;Humidity;BMP_temperature;BMP_pressure;BME280_temperature;BME280_humidity;BME280_pressure;Samples;Min_cycle;Max_cycle;Signal;HPM_P1;HPM_P2
2022/03/01 00:00:13;;;;;;;31.00;11.45;;;;;;;;;;4970766;28;20348;-61
2022/03/01 00:02:38;;;;;;;26.45;10.63;;;;;;;;;;4971749;28;20448;-61
2022/03/01 00:05:04;;;;;;;25.92;9.85;;;;;;;;;;4970579;28;20415;-61
2022/03/01 00:07:30;;;;;;;26.40;10.32;;;;;;;;;;4961128;28;20332;-61
2022/03/01 00:09:55;;;;;;;25.13;11.50;;;;;;;;;;4970500;28;20391;-61
2022/03/01 00:12:20;;;;;;;35.50;10.82;;;;;;;;;;4970680;28;20436;-62
2022/03/01 00:14:46;;;;;;;28.02;11.35;;;;;;;;;;4970494;28;20435;-62
2022/03/01 00:17:11;;;;;;;27.85;9.48;;;;;;;;;;4970267;28;20328;-65
2022/03/01 00:19:36;;;;;;;30.30;9.63;;;;;;;;;;4969974;28;20376;-62
2022/03/01 00:22:02;;;;;;;23.80;9.75;;;;;;;;;;4970321;28;20494;-62
2022/03/01 00:24:27;;;;;;;28.63;10.40;;;;;;;;;;4969954;28;20415;-61
2022/03/01 00:26:52;;;;;;;25.80;10.27;;;;;;;;;;4970326;28;20452;-61
2022/03/01 00:29:18;;;;;;;26.10;10.40;;;;;;;;;;4969787;28;20606;-62
2022/03/01 00:31:43;;;;;;;27.05;9.60;;;;;;;;;;4970074;28;20424;-62
2022/03/01 00:34:08;;;;;;;24.73;9.00;;;;;;;;;;4970262;28;20519;-62
2022/03/01 00:36:36;;;;;;;23.10;9.68;;;;;;;;;;4971253;28;20072;-61
2022/03/01 00:39:05;;;;;;;23.85;9.68;;;;;;;;;;4969549;28;20474;-62
2022/03/01 00:41:31;;;;;;;28.08;9.82;;;;;;;;;;4962088;28;20419;-62
2022/03/01 00:43:56;;;;;;;26.38;8.93;;;;;;;;;;4969635;28;20055;-61
2022/03/01 00:46:23;;;;;;;28.02;10.35;;;;;;;;;;4969895;28;20329;-62
2022/03/01 00:48:49;;;;;;;19.75;9.20;;;;;;;;;;4970294;28;20440;-61
2022/03/01 00:51:14;;;;;;;22.35;8.23;;;;;;;;;;4970840;28;20399;-61
2022/03/01 00:53:40;;;;;;;21.30;8.05;;;;;;;;;;4961686;28;20343;-62
2022/03/01 00:56:05;;;;;;;25.35;9.75;;;;;;;;;;4969515;28;20030;-62
2022/03/01 00:58:31;;;;;;;21.33;8.13;;;;;;;;;;4969496;28;20491;-62
2022/03/01 01:00:56;;;;;;;28.63;9.77;;;;;;;;;;4974661;28;20423;-62
2022/03/01 01:03:22;;;;;;;24.70;9.15;;;;;;;;;;4983111;28;20081;-63
2022/03/01 01:05:47;;;;;;;21.58;8.43;;;;;;;;;;4962298;28;20441;-62
2022/03/01 01:08:13;;;;;;;20.00;8.73;;;;;;;;;;4970870;28;20456;-62
2022/03/01 01:10:38;;;;;;;22.55;9.02;;;;;;;;;;4969569;28;20391;-62
2022/03/01 01:13:03;;;;;;;21.60;8.43;;;;;;;;;;4970391;28;20316;-62
2022/03/01 01:15:29;;;;;;;20.73;8.20;;;;;;;;;;4976614;28;20468;-62
2022/03/01 01:17:54;;;;;;;20.52;8.43;;;;;;;;;;4967815;28;20120;-62
2022/03/01 01:20:19;;;;;;;25.25;8.73;;;;;;;;;;4969935;28;20496;-62
2022/03/01 01:22:45;;;;;;;17.75;7.72;;;;;;;;;;4969292;28;20411;-62
2022/03/01 01:25:21;;;;;;;22.70;8.38;;;;;;;;;;4970227;28;20460;-62
2022/03/01 01:27:50;;;;;;;21.63;7.82;;;;;;;;;;4969891;28;20354;-62
2022/03/01 01:30:17;;;;;;;;;;;;;;;;;;4969782;28;20029;-62
2022/03/01 01:32:43;;;;;;;15.63;7.07;;;;;;;;;;4970574;28;20280;-61
2022/03/01 01:35:10;;;;;;;19.40;7.55;;;;;;;;;;4973359;28;20048;-62
2022/03/01 01:37:35;;;;;;;20.42;7.88;;;;;;;;;;4973331;28;20137;-62
2022/03/01 01:40:03;;;;;;;19.27;6.85;;;;;;;;;;4972939;28;20437;-62
2022/03/01 01:42:28;;;;;;;18.00;7.55;;;;;;;;;;4974218;28;20483;-61
2022/03/01 01:44:53;;;;;;;23.88;8.75;;;;;;;;;;4972887;28;20511;-62
2022/03/01 01:47:19;;;;;;;24.90;8.57;;;;;;;;;;4973135;28;20441;-61
2022/03/01 01:49:44;;;;;;;17.27;7.03;;;;;;;;;;4973130;28;20494;-62
2022/03/01 01:52:09;;;;;;;18.25;7.43;;;;;;;;;;4974088;28;20433;-62
2022/03/01 01:54:35;;;;;;;19.83;7.60;;;;;;;;;;4973863;28;20406;-64
2022/03/01 01:57:00;;;;;;;17.92;7.97;;;;;;;;;;4973114;28;20129;-62
2022/03/01 01:59:25;;;;;;;17.85;7.00;;;;;;;;;;4972978;28;20416;-62
2022/03/01 02:01:51;;;;;;;20.30;8.35;;;;;;;;;;4972851;28;20029;-62
2022/03/01 02:04:16;;;;;;;16.40;7.13;;;;;;;;;;4972957;28;20052;-62
2022/03/01 02:06:52;;;;;;;19.08;6.70;;;;;;;;;;4972550;28;20332;-61
2022/03/01 02:09:18;;;;;;;20.27;7.22;;;;;;;;;;4972894;28;20375;-61
2022/03/01 02:11:43;;;;;;;17.88;6.75;;;;;;;;;;4972660;28;20069;-62
2022/03/01 02:14:09;;;;;;;14.55;7.35;;;;;;;;;;4973036;28;20372;-62
2022/03/01 02:16:35;;;;;;;20.70;8.20;;;;;;;;;;4972297;28;20119;-61
2022/03/01 02:19:00;;;;;;;21.95;7.60;;;;;;;;;;4983707;28;20391;-62
2022/03/01 02:21:25;;;;;;;15.98;7.45;;;;;;;;;;4972420;28;20432;-62
2022/03/01 02:23:51;;;;;;;14.85;7.35;;;;;;;;;;4972509;28;20388;-62
2022/03/01 02:26:16;;;;;;;19.00;7.70;;;;;;;;;;4972748;28;20417;-62
2022/03/01 02:28:41;;;;;;;17.77;7.45;;;;;;;;;;4972785;28;20363;-62
2022/03/01 02:31:06;;;;;;;15.07;6.75;;;;;;;;;;4967527;28;20506;-62
2022/03/01 02:33:32;;;;;;;20.92;7.75;;;;;;;;;;4972141;28;20388;-62
2022/03/01 02:35:57;;;;;;;18.25;8.80;;;;;;;;;;4972242;28;20183;-62
2022/03/01 02:38:22;;;;;;;14.35;6.97;;;;;;;;;;4972226;28;20519;-62
2022/03/01 02:40:48;;;;;;;19.60;7.68;;;;;;;;;;4971725;28;20468;-62
2022/03/01 02:43:13;;;;;;;17.67;7.20;;;;;;;;;;4971813;28;20333;-62
2022/03/01 02:45:39;;;;;;;16.65;7.15;;;;;;;;;;4973522;28;20025;-64
2022/03/01 02:48:04;;;;;;;15.30;6.90;;;;;;;;;;4972592;28;20499;-62
2022/03/01 02:50:30;;;;;;;14.93;6.10;;;;;;;;;;4972290;28;20537;-62
2022/03/01 02:52:55;;;;;;;16.17;6.95;;;;;;;;;;4971788;28;20037;-62
2022/03/01 02:55:20;;;;;;;21.50;6.68;;;;;;;;;;4971985;28;20372;-62
2022/03/01 02:57:46;;;;;;;12.00;5.43;;;;;;;;;;4972646;28;20427;-62
2022/03/01 03:00:11;;;;;;;15.02;6.40;;;;;;;;;;4984390;28;20445;-62
2022/03/01 03:02:37;;;;;;;15.45;6.78;;;;;;;;;;4963028;28;20052;-62
2022/03/01 03:05:04;;;;;;;15.60;5.97;;;;;;;;;;4971981;28;20072;-62
2022/03/01 03:07:29;;;;;;;14.98;6.78;;;;;;;;;;4972270;28;20425;-62
2022/03/01 03:09:55;;;;;;;16.85;7.00;;;;;;;;;;4973166;28;20310;-62
2022/03/01 03:12:20;;;;;;;16.95;7.13;;;;;;;;;;4972887;28;20432;-62
2022/03/01 03:14:45;;;;;;;18.25;6.38;;;;;;;;;;4972658;28;20421;-62
2022/03/01 03:17:11;;;;;;;13.52;5.78;;;;;;;;;;4984161;28;20413;-62
2022/03/01 03:19:37;;;;;;;14.57;5.93;;;;;;;;;;4971308;28;20328;-62
2022/03/01 03:22:03;;;;;;;17.27;6.65;;;;;;;;;;4971656;28;20421;-62
2022/03/01 03:24:28;;;;;;;13.43;6.10;;;;;;;;;;4971548;28;20380;-62
2022/03/01 03:26:54;;;;;;;23.45;7.00;;;;;;;;;;4971403;28;20033;-63
2022/03/01 03:29:19;;;;;;;15.68;6.40;;;;;;;;;;4971671;28;20453;-62
2022/03/01 03:31:45;;;;;;;12.88;5.40;;;;;;;;;;4971225;28;20026;-62
2022/03/01 03:34:11;;;;;;;17.08;6.18;;;;;;;;;;4967604;28;20500;-62
2022/03/01 03:36:41;;;;;;;12.15;6.35;;;;;;;;;;4971896;28;20415;-62
2022/03/01 03:39:08;;;;;;;18.13;6.75;;;;;;;;;;4970713;28;20507;-62
2022/03/01 03:41:34;;;;;;;13.85;5.78;;;;;;;;;;4970665;28;20523;-62
2022/03/01 03:44:00;;;;;;;19.67;6.47;;;;;;;;;;4965816;28;20510;-62
2022/03/01 03:46:25;;;;;;;14.48;5.97;;;;;;;;;;4970832;28;20294;-62
2022/03/01 03:48:52;;;;;;;16.33;5.72;;;;;;;;;;4971166;28;20453;-62
2022/03/01 03:51:18;;;;;;;13.52;5.93;;;;;;;;;;4970920;28;20376;-63
2022/03/01 03:53:43;;;;;;;17.42;6.28;;;;;;;;;;4970494;28;20392;-62
2022/03/01 03:56:09;;;;;;;17.42;5.85;;;;;;;;;;4970096;28;20342;-62
2022/03/01 03:58:34;;;;;;;17.90;6.32;;;;;;;;;;4971715;28;20428;-62
2022/03/01 04:00:59;;;;;;;18.00;6.50;;;;;;;;;;4970906;28;20470;-62
2022/03/01 04:03:25;;;;;;;9.07;4.78;;;;;;;;;;4970489;28;20056;-62
2022/03/01 04:05:50;;;;;;;16.02;6.20;;;;;;;;;;4971420;28;20464;-62
2022/03/01 04:08:17;;;;;;;17.35;6.47;;;;;;;;;;4970765;28;20476;-62
2022/03/01 04:10:43;;;;;;;16.75;5.57;;;;;;;;;;4970372;28;20458;-62
2022/03/01 04:13:08;;;;;;;19.60;5.32;;;;;;;;;;4970428;28;20353;-62
2022/03/01 04:15:34;;;;;;;11.93;5.78;;;;;;;;;;4971551;28;20029;-61
2022/03/01 04:17:59;;;;;;;14.82;5.80;;;;;;;;;;4969972;28;20417;-62
2022/03/01 04:20:25;;;;;;;14.70;5.78;;;;;;;;;;4970678;28;20104;-61
2022/03/01 04:22:50;;;;;;;12.30;5.65;;;;;;;;;;4971290;28;20332;-62
2022/03/01 04:25:16;;;;;;;13.63;5.75;;;;;;;;;;4970368;28;20467;-62
2022/03/01 04:27:41;;;;;;;11.65;5.50;;;;;;;;;;4971616;28;20417;-62
2022/03/01 04:30:08;;;;;;;13.05;5.60;;;;;;;;;;4971239;28;20419;-61
2022/03/01 04:32:34;;;;;;;13.32;5.85;;;;;;;;;;4971449;28;20383;-62
2022/03/01 04:35:00;;;;;;;14.10;6.13;;;;;;;;;;4970346;28;20470;-62
2022/03/01 04:37:26;;;;;;;14.57;6.55;;;;;;;;;;4970570;28;20375;-62
2022/03/01 04:39:51;;;;;;;18.02;5.88;;;;;;;;;;4969603;28;20046;-62
2022/03/01 04:42:17;;;;;;;15.25;5.97;;;;;;;;;;4969673;28;20352;-63
2022/03/01 04:44:43;;;;;;;12.23;5.45;;;;;;;;;;4970316;28;20479;-62
2022/03/01 04:47:11;;;;;;;15.23;5.70;;;;;;;;;;4970083;28;20368;-63
2022/03/01 04:49:36;;;;;;;14.30;5.93;;;;;;;;;;4969433;28;20321;-62
2022/03/01 04:52:02;;;;;;;13.70;5.72;;;;;;;;;;4969762;28;20586;-62
2022/03/01 04:54:28;;;;;;;19.85;5.95;;;;;;;;;;4971394;28;20523;-62
2022/03/01 04:56:54;;;;;;;14.60;5.65;;;;;;;;;;4969487;28;20436;-62
2022/03/01 04:59:19;;;;;;;12.20;6.22;;;;;;;;;;4970249;28;20428;-62
2022/03/01 05:01:44;;;;;;;12.50;5.18;;;;;;;;;;4969827;28;20026;-62
2022/03/01 05:04:10;;;;;;;16.33;6.07;;;;;;;;;;4970491;28;20029;-62
2022/03/01 05:06:35;;;;;;;13.52;6.20;;;;;;;;;;4969247;28;20433;-62
2022/03/01 05:09:00;;;;;;;16.52;5.13;;;;;;;;;;4969669;28;20437;-63
2022/03/01 05:11:26;;;;;;;12.77;5.95;;;;;;;;;;4969551;28;20588;-62
2022/03/01 05:13:51;;;;;;;14.80;6.05;;;;;;;;;;4971143;28;20470;-62
2022/03/01 05:16:17;;;;;;;11.98;5.65;;;;;;;;;;4969400;28;20341;-62
2022/03/01 05:18:42;;;;;;;13.25;5.97;;;;;;;;;;4969993;28;20455;-62
2022/03/01 05:21:07;;;;;;;16.23;6.45;;;;;;;;;;4971543;28;20415;-63
2022/03/01 05:23:33;;;;;;;12.73;5.90;;;;;;;;;;4969574;28;20523;-62
2022/03/01 05:25:59;;;;;;;13.20;6.45;;;;;;;;;;4969763;28;20037;-62
2022/03/01 05:28:25;;;;;;;13.40;5.30;;;;;;;;;;4969829;28;20052;-62
2022/03/01 05:30:51;;;;;;;14.60;6.75;;;;;;;;;;4969491;28;20568;-62
2022/03/01 05:33:16;;;;;;;13.40;5.85;;;;;;;;;;4969287;28;20092;-62
2022/03/01 05:35:43;;;;;;;12.00;6.20;;;;;;;;;;4970505;28;20380;-62
2022/03/01 05:38:09;;;;;;;13.30;5.50;;;;;;;;;;4969517;28;20056;-62
2022/03/01 05:40:35;;;;;;;16.88;8.00;;;;;;;;;;4969416;28;20461;-62
2022/03/01 05:43:01;;;;;;;18.05;7.00;;;;;;;;;;4970272;28;20484;-62
2022/03/01 05:45:27;;;;;;;14.90;6.15;;;;;;;;;;4969015;28;20384;-62
2022/03/01 05:47:53;;;;;;;17.23;7.60;;;;;;;;;;4969124;28;20337;-62
2022/03/01 05:50:19;;;;;;;14.57;6.63;;;;;;;;;;4969035;28;20095;-62
2022/03/01 05:52:45;;;;;;;14.23;6.78;;;;;;;;;;4971270;28;20348;-62
2022/03/01 05:55:11;;;;;;;16.08;7.20;;;;;;;;;;4969158;28;20440;-62
2022/03/01 05:57:36;;;;;;;19.90;6.75;;;;;;;;;;4969322;28;20456;-62
2022/03/01 06:00:04;;;;;;;14.95;6.75;;;;;;;;;;4969916;28;20391;-62
2022/03/01 06:02:29;;;;;;;16.05;6.60;;;;;;;;;;4969436;28;20477;-62
2022/03/01 06:04:55;;;;;;;15.65;6.60;;;;;;;;;;4969157;28;20511;-62
2022/03/01 06:07:20;;;;;;;18.85;7.15;;;;;;;;;;4968999;28;20373;-62
2022/03/01 06:09:45;;;;;;;19.58;8.48;;;;;;;;;;4969076;28;20480;-62
2022/03/01 06:12:11;;;;;;;18.00;7.85;;;;;;;;;;4968815;28;20413;-63
2022/03/01 06:14:36;;;;;;;19.25;8.07;;;;;;;;;;4969153;28;20411;-62
2022/03/01 06:17:02;;;;;;;20.40;7.68;;;;;;;;;;4968960;28;20033;-62
2022/03/01 06:19:27;;;;;;;18.23;7.72;;;;;;;;;;4971032;28;20369;-62
2022/03/01 06:21:52;;;;;;;18.00;8.13;;;;;;;;;;4972193;28;20467;-62
2022/03/01 06:24:18;;;;;;;15.80;7.07;;;;;;;;;;4974286;28;20329;-62
2022/03/01 06:26:44;;;;;;;22.27;9.93;;;;;;;;;;4972416;28;20464;-62
2022/03/01 06:29:09;;;;;;;23.45;7.72;;;;;;;;;;4972308;28;20449;-63
2022/03/01 06:31:34;;;;;;;17.73;7.82;;;;;;;;;;4973543;28;20328;-62
2022/03/01 06:34:00;;;;;;;22.60;7.82;;;;;;;;;;4972477;28;20341;-62
2022/03/01 06:36:26;;;;;;;21.60;8.45;;;;;;;;;;4972295;28;20322;-62
2022/03/01 06:38:51;;;;;;;22.17;9.07;;;;;;;;;;4972209;28;20045;-62
2022/03/01 06:41:17;;;;;;;18.30;8.95;;;;;;;;;;4972422;28;20044;-63
2022/03/01 06:43:42;;;;;;;21.20;8.77;;;;;;;;;;4972146;28;20461;-62
2022/03/01 06:46:08;;;;;;;22.17;9.02;;;;;;;;;;4972201;28;20061;-62
2022/03/01 06:48:33;;;;;;;23.52;9.20;;;;;;;;;;4972346;28;20444;-62
2022/03/01 06:50:58;;;;;;;20.55;8.60;;;;;;;;;;4972125;28;20056;-62
2022/03/01 06:53:24;;;;;;;18.92;7.68;;;;;;;;;;4971568;28;20473;-62
2022/03/01 06:55:49;;;;;;;18.63;8.73;;;;;;;;;;4981679;28;20495;-62
2022/03/01 06:58:14;;;;;;;19.92;8.43;;;;;;;;;;4972376;28;20433;-62
2022/03/01 07:00:40;;;;;;;18.52;8.07;;;;;;;;;;4971842;28;20437;-65
2022/03/01 07:03:05;;;;;;;20.27;8.60;;;;;;;;;;4971823;28;20367;-62
2022/03/01 07:05:31;;;;;;;20.55;9.07;;;;;;;;;;4973819;28;20508;-62
2022/03/01 07:07:56;;;;;;;15.68;7.65;;;;;;;;;;4971583;28;20440;-62
2022/03/01 07:10:22;;;;;;;19.50;8.55;;;;;;;;;;4972034;28;20381;-62
2022/03/01 07:12:49;;;;;;;23.08;8.48;;;;;;;;;;4971488;28;20044;-63
2022/03/01 07:15:15;;;;;;;20.08;8.00;;;;;;;;;;4973184;28;20314;-62
2022/03/01 07:17:40;;;;;;;22.55;8.05;;;;;;;;;;4971273;28;20354;-62
2022/03/01 07:20:11;;;;;;;17.90;8.43;;;;;;;;;;4972746;28;20120;-63
2022/03/01 07:22:36;;;;;;;17.85;7.95;;;;;;;;;;4971455;28;20429;-62
2022/03/01 07:25:02;;;;;;;17.75;8.13;;;;;;;;;;4971831;28;20464;-63
2022/03/01 07:27:28;;;;;;;16.70;8.80;;;;;;;;;;4986955;28;20345;-62
2022/03/01 07:29:53;;;;;;;21.70;7.95;;;;;;;;;;4971098;28;20402;-62
2022/03/01 07:32:19;;;;;;;22.02;8.73;;;;;;;;;;4970915;28;20445;-63
2022/03/01 07:34:44;;;;;;;19.15;8.05;;;;;;;;;;4963738;28;20348;-63
2022/03/01 07:37:09;;;;;;;15.05;7.18;;;;;;;;;;4972278;28;20397;-62
2022/03/01 07:39:35;;;;;;;15.25;7.80;;;;;;;;;;4970317;28;20459;-63
2022/03/01 07:42:01;;;;;;;19.70;8.73;;;;;;;;;;4971122;28;20095;-63
2022/03/01 07:44:26;;;;;;;18.40;7.93;;;;;;;;;;4971175;28;20302;-62
2022/03/01 07:46:51;;;;;;;16.67;7.13;;;;;;;;;;4964216;28;20052;-63
2022/03/01 07:49:17;;;;;;;19.65;8.55;;;;;;;;;;4971773;28;20038;-62
2022/03/01 07:51:43;;;;;;;23.70;7.45;;;;;;;;;;4970843;28;20344;-62
2022/03/01 07:54:08;;;;;;;16.77;7.97;;;;;;;;;;4971226;28;20425;-62
2022/03/01 07:56:33;;;;;;;21.00;8.68;;;;;;;;;;4971559;28;20376;-62
2022/03/01 07:58:59;;;;;;;14.80;7.45;;;;;;;;;;4970760;28;20346;-63
2022/03/01 08:01:24;;;;;;;12.32;6.65;;;;;;;;;;4970592;28;20534;-63
2022/03/01 08:03:49;;;;;;;15.05;6.57;;;;;;;;;;4972305;28;20367;-63
2022/03/01 08:06:16;;;;;;;19.52;8.30;;;;;;;;;;4970363;28;20052;-63
2022/03/01 08:08:41;;;;;;;19.13;7.70;;;;;;;;;;4971344;28;20417;-62
2022/03/01 08:11:07;;;;;;;19.83;7.72;;;;;;;;;;4970579;28;20440;-63
2022/03/01 08:13:33;;;;;;;18.52;7.40;;;;;;;;;;4970337;28;20380;-63
2022/03/01 08:15:59;;;;;;;15.50;6.43;;;;;;;;;;4970765;28;20375;-63
2022/03/01 08:18:24;;;;;;;20.33;7.40;;;;;;;;;;4970638;28;20372;-63
2022/03/01 08:20:50;;;;;;;13.05;7.32;;;;;;;;;;4970772;28;20368;-63
2022/03/01 08:23:15;;;;;;;17.38;7.85;;;;;;;;;;4970374;28;20077;-63
2022/03/01 08:25:41;;;;;;;16.00;8.18;;;;;;;;;;4970779;28;20433;-63
2022/03/01 08:28:06;;;;;;;18.45;7.07;;;;;;;;;;4970188;28;20334;-63
2022/03/01 08:30:32;;;;;;;15.88;6.40;;;;;;;;;;4972012;28;20435;-63
2022/03/01 08:32:58;;;;;;;17.67;6.78;;;;;;;;;;4970123;28;20341;-62
2022/03/01 08:35:23;;;;;;;17.90;6.47;;;;;;;;;;4970575;28;20338;-63
2022/03/01 08:37:50;;;;;;;14.25;6.18;;;;;;;;;;4962948;28;20389;-63
2022/03/01 08:40:18;;;;;;;17.77;6.95;;;;;;;;;;4969533;28;20392;-63
2022/03/01 08:42:44;;;;;;;18.85;8.82;;;;;;;;;;4969909;28;20417;-62
2022/03/01 08:45:09;;;;;;;18.50;7.35;;;;;;;;;;4969611;28;20437;-63
2022/03/01 08:47:36;;;;;;;15.27;6.43;;;;;;;;;;4969752;28;20033;-63
2022/03/01 08:50:02;;;;;;;20.50;7.47;;;;;;;;;;4970051;28;20120;-63
2022/03/01 08:52:27;;;;;;;14.82;7.22;;;;;;;;;;4970393;28;20065;-63
2022/03/01 08:54:53;;;;;;;17.65;7.60;;;;;;;;;;4969869;28;20487;-63
2022/03/01 08:57:18;;;;;;;14.48;6.88;;;;;;;;;;4969449;28;20476;-63
2022/03/01 08:59:44;;;;;;;16.95;8.70;;;;;;;;;;4970052;28;20138;-63
2022/03/01 09:02:09;;;;;;;15.95;7.22;;;;;;;;;;4969465;28;20364;-63
2022/03/01 09:04:34;;;;;;;20.00;7.50;;;;;;;;;;4970082;28;20429;-63
2022/03/01 09:07:00;;;;;;;15.27;7.63;;;;;;;;;;4970738;28;20346;-63
2022/03/01 09:09:25;;;;;;;20.02;8.55;;;;;;;;;;4970399;28;20344;-63
2022/03/01 09:11:50;;;;;;;19.83;8.73;;;;;;;;;;4969546;28;20600;-63
2022/03/01 09:14:16;;;;;;;16.95;7.47;;;;;;;;;;4969293;28;20476;-63
2022/03/01 09:16:41;;;;;;;19.38;7.65;;;;;;;;;;4971039;28;20337;-64
2022/03/01 09:19:08;;;;;;;23.25;7.47;;;;;;;;;;4969329;28;20466;-63
2022/03/01 09:21:34;;;;;;;17.05;7.40;;;;;;;;;;4969699;28;20033;-63
2022/03/01 09:23:59;;;;;;;18.80;8.23;;;;;;;;;;4969133;28;20056;-63
2022/03/01 09:26:25;;;;;;;24.40;8.90;;;;;;;;;;4969621;28;20348;-63
2022/03/01 09:28:50;;;;;;;22.08;8.10;;;;;;;;;;4969030;28;20337;-63
2022/03/01 09:31:15;;;;;;;18.92;7.30;;;;;;;;;;4967008;28;20033;-63
2022/03/01 09:33:42;;;;;;;15.75;7.07;;;;;;;;;;4969001;28;20362;-63
2022/03/01 09:36:09;;;;;;;15.68;7.18;;;;;;;;;;4969722;28;20029;-63
2022/03/01 09:38:34;;;;;;;21.40;7.53;;;;;;;;;;4969438;28;20364;-63
2022/03/01 09:41:00;;;;;;;18.02;7.68;;;;;;;;;;4980211;28;20368;-63
2022/03/01 09:43:26;;;;;;;20.58;8.15;;;;;;;;;;4969306;28;20324;-63
2022/03/01 09:45:51;;;;;;;20.05;7.72;;;;;;;;;;4962727;28;20506;-63
2022/03/01 09:48:16;;;;;;;17.00;7.13;;;;;;;;;;4971044;28;20483;-62
2022/03/01 09:50:42;;;;;;;11.43;6.28;;;;;;;;;;4969143;28;20365;-64
2022/03/01 09:53:07;;;;;;;17.65;6.82;;;;;;;;;;4981459;28;20380;-63
2022/03/01 09:55:33;;;;;;;16.92;6.97;;;;;;;;;;4974216;28;20432;-64
2022/03/01 09:57:58;;;;;;;15.90;6.50;;;;;;;;;;4973583;28;20112;-64
2022/03/01 10:00:24;;;;;;;16.25;6.55;;;;;;;;;;4973026;28;20510;-64
2022/03/01 10:02:54;;;;;;;14.55;6.13;;;;;;;;;;4973348;28;20364;-64
2022/03/01 10:05:31;;;;;;;17.70;7.10;;;;;;;;;;4973837;28;20409;-62
2022/03/01 10:08:08;;;;;;;17.50;7.32;;;;;;;;;;4972750;28;20353;-63
2022/03/01 10:10:42;;;;;;;14.73;6.13;;;;;;;;;;4972880;28;20401;-63
2022/03/01 10:13:09;;;;;;;14.30;5.75;;;;;;;;;;4972433;28;20025;-63
2022/03/01 10:15:35;;;;;;;15.38;6.10;;;;;;;;;;4972664;28;20424;-63
2022/03/01 10:18:14;;;;;;;17.73;5.65;;;;;;;;;;4972362;28;20463;-62
2022/03/01 10:20:41;;;;;;;12.63;5.93;;;;;;;;;;4973791;28;20451;-64
2022/03/01 10:23:09;;;;;;;13.02;6.50;;;;;;;;;;4972725;28;20533;-63
2022/03/01 10:25:35;;;;;;;14.35;6.18;;;;;;;;;;4972791;28;20428;-63
2022/03/01 10:28:01;;;;;;;13.18;5.30;;;;;;;;;;4972488;28;20440;-63
2022/03/01 10:30:35;;;;;;;11.45;5.32;;;;;;;;;;4973613;28;20444;-62
2022/03/01 10:33:09;;;;;;;16.67;6.53;;;;;;;;;;4972553;28;20438;-63
2022/03/01 10:35:36;;;;;;;12.88;5.40;;;;;;;;;;4973240;28;20092;-63
2022/03/01 10:38:03;;;;;;;11.25;5.70;;;;;;;;;;4972510;28;20456;-63
2022/03/01 10:40:28;;;;;;;12.75;5.70;;;;;;;;;;4972369;28;20477;-62
2022/03/01 10:43:04;;;;;;;14.70;5.50;;;;;;;;;;4972107;28;20440;-63
2022/03/01 10:45:34;;;;;;;15.57;5.90;;;;;;;;;;4964230;28;20429;-62
2022/03/01 10:47:59;;;;;;;11.85;5.10;;;;;;;;;;4973129;28;20334;-64
2022/03/01 10:50:24;;;;;;;16.27;5.80;;;;;;;;;;4972544;28;20380;-62
2022/03/01 10:52:50;;;;;;;11.30;5.85;;;;;;;;;;4972723;28;20099;-63
2022/03/01 10:55:23;;;;;;;10.02;5.15;;;;;;;;;;4972138;28;20382;-62
2022/03/01 10:58:03;;;;;;;14.27;6.13;;;;;;;;;;4972255;28;20436;-64
2022/03/01 11:00:29;;;;;;;12.68;5.13;;;;;;;;;;4971866;28;20456;-64
2022/03/01 11:02:54;;;;;;;10.98;5.28;;;;;;;;;;4971658;28;20033;-63
2022/03/01 11:05:20;;;;;;;11.05;5.15;;;;;;;;;;4972024;28;20451;-62
2022/03/01 11:07:47;;;;;;;12.15;5.68;;;;;;;;;;4981101;28;20341;-63
2022/03/01 11:10:12;;;;;;;14.27;5.80;;;;;;;;;;4972155;28;20420;-62
2022/03/01 11:12:39;;;;;;;11.23;4.95;;;;;;;;;;4979135;28;20365;-63
2022/03/01 11:15:25;;;;;;;12.93;5.13;;;;;;;;;;4971984;28;20513;-63
2022/03/01 11:18:29;;;;;;;14.15;5.40;;;;;;;;;;4965259;28;20434;-62
2022/03/01 11:20:55;;;;;;;11.82;5.18;;;;;;;;;;4971157;28;20376;-63
2022/03/01 11:23:23;;;;;;;12.65;5.13;;;;;;;;;;4985534;28;20411;-63
2022/03/01 11:25:48;;;;;;;13.57;5.25;;;;;;;;;;4971140;28;20502;-63
2022/03/01 11:28:14;;;;;;;12.90;5.70;;;;;;;;;;4971374;28;20457;-63
2022/03/01 11:30:42;;;;;;;12.60;5.55;;;;;;;;;;4970721;28;20483;-63
2022/03/01 11:33:08;;;;;;;12.75;5.20;;;;;;;;;;4966899;28;20499;-63
2022/03/01 11:35:41;;;;;;;12.57;5.03;;;;;;;;;;4971109;28;20594;-63
2022/03/01 11:38:06;;;;;;;9.90;4.75;;;;;;;;;;4982014;28;20436;-63
2022/03/01 11:40:34;;;;;;;14.32;5.75;;;;;;;;;;4970670;28;20366;-63
2022/03/01 11:43:13;;;;;;;15.45;5.22;;;;;;;;;;4970782;28;20452;-63
2022/03/01 11:45:43;;;;;;;11.27;5.15;;;;;;;;;;4971182;28;20456;-63
2022/03/01 11:48:14;;;;;;;11.70;5.00;;;;;;;;;;4971034;28;20421;-62
2022/03/01 11:50:45;;;;;;;11.23;4.25;;;;;;;;;;4963703;28;20449;-65
2022/03/01 11:53:12;;;;;;;11.52;5.15;;;;;;;;;;4970695;28;20026;-63
2022/03/01 11:55:49;;;;;;;12.00;4.82;;;;;;;;;;4962436;28;20644;-63
2022/03/01 11:58:18;;;;;;;10.63;4.40;;;;;;;;;;4971802;28;20447;-63
2022/03/01 12:00:43;;;;;;;12.68;4.40;;;;;;;;;;4972179;28;20362;-62
2022/03/01 12:03:11;;;;;;;11.45;4.60;;;;;;;;;;4970985;28;20025;-62
2022/03/01 12:05:39;;;;;;;10.13;5.10;;;;;;;;;;4961526;28;20440;-63
2022/03/01 12:08:12;;;;;;;8.27;4.05;;;;;;;;;;4970901;28;20553;-64
2022/03/01 12:10:38;;;;;;;9.50;5.10;;;;;;;;;;4970219;28;20060;-63
2022/03/01 12:13:06;;;;;;;9.80;4.82;;;;;;;;;;4971409;28;20564;-62
2022/03/01 12:15:40;;;;;;;7.75;4.05;;;;;;;;;;4971218;28;20479;-63
2022/03/01 12:18:12;;;;;;;10.25;4.85;;;;;;;;;;4969709;28;20346;-63
2022/03/01 12:20:40;;;;;;;12.77;5.43;;;;;;;;;;4970112;28;20344;-64
2022/03/01 12:23:06;;;;;;;12.95;4.65;;;;;;;;;;4970330;28;20541;-63
2022/03/01 12:25:33;;;;;;;9.88;4.90;;;;;;;;;;4970341;28;20449;-63
2022/03/01 12:28:01;;;;;;;11.65;4.57;;;;;;;;;;4970794;28;20025;-63
2022/03/01 12:30:27;;;;;;;10.05;4.75;;;;;;;;;;4970223;28;20029;-64
2022/03/01 12:32:57;;;;;;;8.70;3.70;;;;;;;;;;4970092;28;20021;-63
2022/03/01 12:35:24;;;;;;;11.00;3.78;;;;;;;;;;4969466;28;20340;-64
2022/03/01 12:37:51;;;;;;;10.52;4.30;;;;;;;;;;4969475;28;20108;-63
2022/03/01 12:40:30;;;;;;;9.30;4.20;;;;;;;;;;4969352;28;20457;-63
2022/03/01 12:43:02;;;;;;;11.30;4.22;;;;;;;;;;4970342;28;20499;-64
2022/03/01 12:45:46;;;;;;;7.80;3.92;;;;;;;;;;4969976;28;20491;-63
2022/03/01 12:48:14;;;;;;;8.77;3.85;;;;;;;;;;4969489;28;20051;-63
2022/03/01 12:50:48;;;;;;;9.07;4.50;;;;;;;;;;4969863;28;20041;-64
2022/03/01 12:53:14;;;;;;;8.05;3.97;;;;;;;;;;4969627;28;20044;-63
2022/03/01 12:55:40;;;;;;;9.90;4.28;;;;;;;;;;4969603;28;20037;-63
2022/03/01 12:58:20;;;;;;;10.05;4.07;;;;;;;;;;4969602;28;20421;-63
2022/03/01 13:00:46;;;;;;;7.40;4.00;;;;;;;;;;4962894;28;20029;-63
2022/03/01 13:03:12;;;;;;;12.57;4.30;;;;;;;;;;4970181;28;20444;-63
2022/03/01 13:05:37;;;;;;;9.48;3.90;;;;;;;;;;4970234;28;20306;-63
2022/03/01 13:08:14;;;;;;;8.40;4.20;;;;;;;;;;4971105;28;20302;-63
2022/03/01 13:10:39;;;;;;;6.80;3.25;;;;;;;;;;4970449;28;20337;-62
2022/03/01 13:13:08;;;;;;;7.82;3.67;;;;;;;;;;4969235;28;20353;-63
2022/03/01 13:15:37;;;;;;;7.72;3.97;;;;;;;;;;4969183;28;20491;-63
2022/03/01 13:18:02;;;;;;;;;;;;;;;;;;4970671;28;20489;-63
2022/03/01 13:20:28;;;;;;;6.22;3.72;;;;;;;;;;4969872;28;20324;-63
2022/03/01 13:23:07;;;;;;;8.90;3.50;;;;;;;;;;4969228;28;20505;-62
2022/03/01 13:25:33;;;;;;;;;;;;;;;;;;4969969;28;20330;-63
2022/03/01 13:27:58;;;;;;;8.73;3.00;;;;;;;;;;4968803;28;19916;-63
2022/03/01 13:30:25;;;;;;;7.07;3.55;;;;;;;;;;4969243;28;20033;-63
2022/03/01 13:33:02;;;;;;;6.93;3.70;;;;;;;;;;4969858;28;20429;-63
2022/03/01 13:35:28;;;;;;;10.18;3.47;;;;;;;;;;4969618;28;20445;-63
2022/03/01 13:38:00;;;;;;;7.88;3.97;;;;;;;;;;4969228;28;20342;-63
2022/03/01 13:40:27;;;;;;;8.80;3.90;;;;;;;;;;4968857;28;20349;-62
2022/03/01 13:43:03;;;;;;;9.10;4.35;;;;;;;;;;4969975;28;20373;-63
2022/03/01 13:45:31;;;;;;;13.15;5.05;;;;;;;;;;4962306;28;20388;-62
2022/03/01 13:48:07;;;;;;;9.43;4.68;;;;;;;;;;4969950;28;20440;-63
2022/03/01 13:50:32;;;;;;;8.13;4.28;;;;;;;;;;4969503;28;20018;-63
2022/03/01 13:53:00;;;;;;;9.65;3.78;;;;;;;;;;4968932;28;20452;-63
2022/03/01 13:55:26;;;;;;;11.75;4.25;;;;;;;;;;4969271;28;20490;-64
2022/03/01 13:57:56;;;;;;;9.63;4.03;;;;;;;;;;4968775;28;20445;-62
2022/03/01 14:00:31;;;;;;;10.75;4.30;;;;;;;;;;4968488;28;20425;-63
2022/03/01 14:03:03;;;;;;;8.75;4.22;;;;;;;;;;4968687;28;20392;-63
2022/03/01 14:05:29;;;;;;;10.85;3.95;;;;;;;;;;4967168;28;20038;-62
2022/03/01 14:08:05;;;;;;;8.05;3.83;;;;;;;;;;4969431;28;20483;-63
2022/03/01 14:10:36;;;;;;;9.43;4.28;;;;;;;;;;4969148;28;20309;-63
2022/03/01 14:13:16;;;;;;;6.40;3.38;;;;;;;;;;4968710;28;20437;-63
2022/03/01 14:15:45;;;;;;;7.65;3.88;;;;;;;;;;4969142;28;20025;-63
2022/03/01 14:18:12;;;;;;;7.35;3.00;;;;;;;;;;4969045;28;20340;-63
2022/03/01 14:20:37;;;;;;;11.48;3.90;;;;;;;;;;4968919;28;20394;-64
2022/03/01 14:23:04;;;;;;;7.03;3.30;;;;;;;;;;4969106;28;20392;-63
2022/03/01 14:25:30;;;;;;;7.30;3.33;;;;;;;;;;4968520;28;20510;-63
2022/03/01 14:27:55;;;;;;;8.95;3.75;;;;;;;;;;4968775;28;20699;-63